sensor_id;sensor_type;location;lat;lon;timestamp;P1;durP1;ratioP1;P2;durP2;ratioP2
44120;SDS011;29783;52.504;13.478;2023-07-16T00:00:04;3.35;;;2.25;;
44120;SDS011;29783;52.504;13.478;2023-07-16T00:02:33;5.15;;;2.30;;
44120;SDS011;29783;52.504;13.478;2023-07-16T00:04:59;3.75;;;2.60;;
44120;SDS011;29783;52.504;13.478;2023-07-16T00:07:25;8.15;;;2.10;;
44120;SDS011;29783;52.504;13.478;2023-07-16T00:09:51;4.55;;;2.25;;
44120;SDS011;29783;52.504;13.478;2023-07-16T00:12:18;4.63;;;2.20;;
44120;SDS011;29783;52.504;13.478;2023-07-16T00:14:43;4.15;;;2.05;;
44120;SDS011;29783;52.504;13.478;2023-07-16T00:17:09;3.17;;;2.40;;
44120;SDS011;29783;52.504;13.478;2023-07-16T00:19:35;2.47;;;2.08;;
44120;SDS011;29783;52.504;13.478;2023-07-16T00:22:00;5.13;;;2.47;;
44120;SDS011;29783;52.504;13.478;2023-07-16T00:24:26;8.18;;;2.60;;
44120;SDS011;29783;52.504;13.478;2023-07-16T00:26:52;4.78;;;2.83;;
44120;SDS011;29783;52.504;13.478;2023-07-16T00:29:18;6.85;;;2.90;;
44120;SDS011;29783;52.504;13.478;2023-07-16T00:31:43;8.45;;;2.67;;
44120;SDS011;29783;52.504;13.478;2023-07-16T00:34:09;10.23;;;2.67;;
44120;SDS011;29783;52.504;13.478;2023-07-16T00:36:35;4.10;;;2.83;;
44120;SDS011;29783;52.504;13.478;2023-07-16T00:39:01;3.72;;;2.60;;
44120;SDS011;29783;52.504;13.478;2023-07-16T00:41:26;6.88;;;2.75;;
44120;SDS011;29783;52.504;13.478;2023-07-16T00:43:52;6.07;;;3.60;;
44120;SDS011;29783;52.504;13.478;2023-07-16T00:46:20;5.53;;;3.03;;
44120;SDS011;29783;52.504;13.478;2023-07-16T00:48:48;7.68;;;2.78;;
44120;SDS011;29783;52.504;13.478;2023-07-16T00:51:13;6.40;;;2.88;;
44120;SDS011;29783;52.504;13.478;2023-07-16T00:53:41;12.27;;;3.10;;
44120;SDS011;29783;52.504;13.478;2023-07-16T00:56:07;4.70;;;2.78;;
44120;SDS011;29783;52.504;13.478;2023-07-16T00:58:35;8.48;;;2.75;;
44120;SDS011;29783;52.504;13.478;2023-07-16T01:01:01;6.20;;;2.80;;
44120;SDS011;29783;52.504;13.478;2023-07-16T01:03:28;4.88;;;2.65;;
44120;SDS011;29783;52.504;13.478;2023-07-16T01:09:11;3.78;;;2.30;;
44120;SDS011;29783;52.504;13.478;2023-07-16T01:11:43;5.25;;;2.83;;
44120;SDS011;29783;52.504;13.478;2023-07-16T01:14:09;6.63;;;2.70;;
44120;SDS011;29783;52.504;13.478;2023-07-16T01:16:35;10.43;;;3.30;;
44120;SDS011;29783;52.504;13.478;2023-07-16T01:19:02;8.48;;;3.10;;
44120;SDS011;29783;52.504;13.478;2023-07-16T01:21:31;8.50;;;2.90;;
44120;SDS011;29783;52.504;13.478;2023-07-16T01:24:06;7.10;;;2.83;;
44120;SDS011;29783;52.504;13.478;2023-07-16T01:29:34;5.97;;;3.20;;
44120;SDS011;29783;52.504;13.478;2023-07-16T01:32:05;3.97;;;3.20;;
44120;SDS011;29783;52.504;13.478;2023-07-16T01:34:33;5.45;;;2.78;;
44120;SDS011;29783;52.504;13.478;2023-07-16T01:37:01;5.00;;;3.28;;
44120;SDS011;29783;52.504;13.478;2023-07-16T01:39:27;6.90;;;3.58;;
44120;SDS011;29783;52.504;13.478;2023-07-16T01:41:53;8.77;;;4.82;;
44120;SDS011;29783;52.504;13.478;2023-07-16T01:44:19;5.03;;;3.70;;
44120;SDS011;29783;52.504;13.478;2023-07-16T02:37:52;4.10;;;2.80;;
44120;SDS011;29783;52.504;13.478;2023-07-16T02:40:18;4.30;;;2.45;;
44120;SDS011;29783;52.504;13.478;2023-07-16T02:42:44;3.92;;;2.90;;
44120;SDS011;29783;52.504;13.478;2023-07-16T02:45:09;3.75;;;2.60;;
44120;SDS011;29783;52.504;13.478;2023-07-16T02:56:27;6.60;;;2.90;;
44120;SDS011;29783;52.504;13.478;2023-07-16T02:58:52;4.55;;;3.05;;
44120;SDS011;29783;52.504;13.478;2023-07-16T03:01:18;4.60;;;2.88;;
44120;SDS011;29783;52.504;13.478;2023-07-16T03:03:44;4.38;;;3.00;;
44120;SDS011;29783;52.504;13.478;2023-07-16T03:06:09;7.80;;;3.08;;
44120;SDS011;29783;52.504;13.478;2023-07-16T03:08:35;6.97;;;3.05;;
44120;SDS011;29783;52.504;13.478;2023-07-16T03:11:01;4.80;;;2.72;;
44120;SDS011;29783;52.504;13.478;2023-07-16T03:13:26;6.15;;;3.10;;
44120;SDS011;29783;52.504;13.478;2023-07-16T03:15:52;4.43;;;2.90;;
44120;SDS011;29783;52.504;13.478;2023-07-16T03:18:18;4.20;;;2.67;;
44120;SDS011;29783;52.504;13.478;2023-07-16T03:20:44;8.07;;;2.97;;
44120;SDS011;29783;52.504;13.478;2023-07-16T03:23:10;3.55;;;2.60;;
44120;SDS011;29783;52.504;13.478;2023-07-16T03:25:36;4.55;;;3.17;;
44120;SDS011;29783;52.504;13.478;2023-07-16T03:28:02;8.35;;;2.92;;
44120;SDS011;29783;52.504;13.478;2023-07-16T03:30:28;6.00;;;2.90;;
44120;SDS011;29783;52.504;13.478;2023-07-16T03:32:55;8.70;;;3.00;;
44120;SDS011;29783;52.504;13.478;2023-07-16T03:35:21;2.65;;;2.45;;
44120;SDS011;29783;52.504;13.478;2023-07-16T03:37:46;4.22;;;2.67;;
44120;SDS011;29783;52.504;13.478;2023-07-16T03:40:16;3.75;;;2.50;;
44120;SDS011;29783;52.504;13.478;2023-07-16T03:42:43;3.72;;;2.35;;
44120;SDS011;29783;52.504;13.478;2023-07-16T03:45:10;5.10;;;2.58;;
44120;SDS011;29783;52.504;13.478;2023-07-16T03:56:13;2.75;;;2.00;;
44120;SDS011;29783;52.504;13.478;2023-07-16T03:58:38;5.45;;;2.10;;
44120;SDS011;29783;52.504;13.478;2023-07-16T04:01:04;3.60;;;2.28;;
44120;SDS011;29783;52.504;13.478;2023-07-16T04:03:29;5.78;;;2.10;;
44120;SDS011;29783;52.504;13.478;2023-07-16T04:06:02;2.88;;;2.10;;
44120;SDS011;29783;52.504;13.478;2023-07-16T04:08:29;4.07;;;2.03;;
44120;SDS011;29783;52.504;13.478;2023-07-16T04:10:55;3.65;;;2.17;;
44120;SDS011;29783;52.504;13.478;2023-07-16T04:13:20;2.85;;;2.15;;
44120;SDS011;29783;52.504;13.478;2023-07-16T04:15:46;3.00;;;2.20;;
44120;SDS011;29783;52.504;13.478;2023-07-16T04:18:11;3.55;;;2.00;;
44120;SDS011;29783;52.504;13.478;2023-07-16T04:20:37;2.08;;;1.83;;
44120;SDS011;29783;52.504;13.478;2023-07-16T04:23:03;4.70;;;2.05;;
44120;SDS011;29783;52.504;13.478;2023-07-16T04:25:28;2.97;;;2.30;;
44120;SDS011;29783;52.504;13.478;2023-07-16T04:27:55;2.83;;;1.90;;
44120;SDS011;29783;52.504;13.478;2023-07-16T04:30:21;5.50;;;2.17;;
44120;SDS011;29783;52.504;13.478;2023-07-16T04:32:47;4.43;;;2.08;;
44120;SDS011;29783;52.504;13.478;2023-07-16T04:35:13;4.55;;;2.22;;
44120;SDS011;29783;52.504;13.478;2023-07-16T04:37:39;3.65;;;2.20;;
44120;SDS011;29783;52.504;13.478;2023-07-16T04:40:05;4.93;;;2.20;;
44120;SDS011;29783;52.504;13.478;2023-07-16T04:42:34;4.45;;;2.47;;
44120;SDS011;29783;52.504;13.478;2023-07-16T04:44:59;2.92;;;2.25;;
44120;SDS011;29783;52.504;13.478;2023-07-16T04:47:25;3.53;;;2.17;;
44120;SDS011;29783;52.504;13.478;2023-07-16T04:49:50;3.33;;;2.28;;
44120;SDS011;29783;52.504;13.478;2023-07-16T04:52:16;3.97;;;2.63;;
44120;SDS011;29783;52.504;13.478;2023-07-16T04:54:42;4.38;;;2.60;;
44120;SDS011;29783;52.504;13.478;2023-07-16T04:57:07;5.88;;;2.42;;
44120;SDS011;29783;52.504;13.478;2023-07-16T04:59:34;6.63;;;2.78;;
44120;SDS011;29783;52.504;13.478;2023-07-16T05:02:01;4.10;;;2.38;;
44120;SDS011;29783;52.504;13.478;2023-07-16T05:04:29;4.82;;;2.50;;
44120;SDS011;29783;52.504;13.478;2023-07-16T05:06:56;7.32;;;2.72;;
44120;SDS011;29783;52.504;13.478;2023-07-16T05:09:22;4.50;;;2.50;;
44120;SDS011;29783;52.504;13.478;2023-07-16T05:11:47;6.60;;;2.50;;
44120;SDS011;29783;52.504;13.478;2023-07-16T05:14:13;3.25;;;2.30;;
44120;SDS011;29783;52.504;13.478;2023-07-16T05:16:38;5.15;;;2.45;;
44120;SDS011;29783;52.504;13.478;2023-07-16T05:19:04;4.50;;;2.78;;
44120;SDS011;29783;52.504;13.478;2023-07-16T05:21:31;3.70;;;2.65;;
44120;SDS011;29783;52.504;13.478;2023-07-16T05:23:57;5.38;;;2.70;;
44120;SDS011;29783;52.504;13.478;2023-07-16T05:26:23;5.57;;;2.83;;
44120;SDS011;29783;52.504;13.478;2023-07-16T05:28:48;6.05;;;2.78;;
44120;SDS011;29783;52.504;13.478;2023-07-16T05:31:14;5.43;;;2.75;;
44120;SDS011;29783;52.504;13.478;2023-07-16T05:33:39;4.00;;;2.40;;
44120;SDS011;29783;52.504;13.478;2023-07-16T05:36:05;7.68;;;2.67;;
44120;SDS011;29783;52.504;13.478;2023-07-16T05:38:31;5.65;;;2.50;;
44120;SDS011;29783;52.504;13.478;2023-07-16T05:41:03;4.15;;;2.17;;
44120;SDS011;29783;52.504;13.478;2023-07-16T05:43:30;4.78;;;2.42;;
44120;SDS011;29783;52.504;13.478;2023-07-16T05:45:56;3.10;;;2.20;;
44120;SDS011;29783;52.504;13.478;2023-07-16T05:48:21;2.65;;;2.10;;
44120;SDS011;29783;52.504;13.478;2023-07-16T05:50:48;3.15;;;2.20;;
44120;SDS011;29783;52.504;13.478;2023-07-16T05:53:14;3.90;;;2.40;;
44120;SDS011;29783;52.504;13.478;2023-07-16T05:55:40;2.75;;;2.10;;
44120;SDS011;29783;52.504;13.478;2023-07-16T05:58:05;3.95;;;2.20;;
44120;SDS011;29783;52.504;13.478;2023-07-16T06:00:31;3.08;;;2.13;;
44120;SDS011;29783;52.504;13.478;2023-07-16T06:02:56;7.80;;;2.35;;
44120;SDS011;29783;52.504;13.478;2023-07-16T06:05:22;6.22;;;2.50;;
44120;SDS011;29783;52.504;13.478;2023-07-16T06:07:49;4.03;;;2.40;;
44120;SDS011;29783;52.504;13.478;2023-07-16T06:10:15;5.60;;;2.65;;
44120;SDS011;29783;52.504;13.478;2023-07-16T06:12:41;3.22;;;2.20;;
44120;SDS011;29783;52.504;13.478;2023-07-16T06:15:07;10.77;;;2.50;;
44120;SDS011;29783;52.504;13.478;2023-07-16T06:17:33;4.65;;;1.88;;
44120;SDS011;29783;52.504;13.478;2023-07-16T06:19:58;4.13;;;2.33;;
44120;SDS011;29783;52.504;13.478;2023-07-16T06:22:24;5.38;;;2.30;;
44120;SDS011;29783;52.504;13.478;2023-07-16T06:24:49;5.50;;;2.58;;
44120;SDS011;29783;52.504;13.478;2023-07-16T06:27:15;5.28;;;2.10;;
44120;SDS011;29783;52.504;13.478;2023-07-16T06:29:41;5.63;;;2.60;;
44120;SDS011;29783;52.504;13.478;2023-07-16T06:32:06;3.70;;;2.30;;
44120;SDS011;29783;52.504;13.478;2023-07-16T06:34:33;7.50;;;2.85;;
44120;SDS011;29783;52.504;13.478;2023-07-16T06:36:59;3.15;;;2.10;;
44120;SDS011;29783;52.504;13.478;2023-07-16T06:39:24;8.10;;;2.50;;
44120;SDS011;29783;52.504;13.478;2023-07-16T06:41:50;3.17;;;2.30;;
44120;SDS011;29783;52.504;13.478;2023-07-16T06:44:16;4.82;;;2.10;;
44120;SDS011;29783;52.504;13.478;2023-07-16T06:46:41;5.05;;;2.60;;
44120;SDS011;29783;52.504;13.478;2023-07-16T06:49:07;4.90;;;2.13;;
44120;SDS011;29783;52.504;13.478;2023-07-16T06:51:33;4.03;;;2.50;;
44120;SDS011;29783;52.504;13.478;2023-07-16T06:53:58;2.63;;;2.03;;
44120;SDS011;29783;52.504;13.478;2023-07-16T06:56:24;3.47;;;1.85;;
44120;SDS011;29783;52.504;13.478;2023-07-16T06:58:50;3.53;;;2.05;;
44120;SDS011;29783;52.504;13.478;2023-07-16T07:01:16;3.92;;;1.90;;
44120;SDS011;29783;52.504;13.478;2023-07-16T07:03:41;4.07;;;2.20;;
44120;SDS011;29783;52.504;13.478;2023-07-16T07:06:07;5.68;;;1.83;;
44120;SDS011;29783;52.504;13.478;2023-07-16T07:08:35;2.28;;;1.63;;
44120;SDS011;29783;52.504;13.478;2023-07-16T07:11:03;1.73;;;1.50;;
44120;SDS011;29783;52.504;13.478;2023-07-16T07:13:29;5.13;;;1.98;;
44120;SDS011;29783;52.504;13.478;2023-07-16T07:15:55;2.45;;;1.98;;
44120;SDS011;29783;52.504;13.478;2023-07-16T07:18:21;6.68;;;1.30;;
44120;SDS011;29783;52.504;13.478;2023-07-16T07:20:47;5.40;;;2.13;;
44120;SDS011;29783;52.504;13.478;2023-07-16T07:23:13;6.72;;;1.73;;
44120;SDS011;29783;52.504;13.478;2023-07-16T07:25:39;3.33;;;1.90;;
44120;SDS011;29783;52.504;13.478;2023-07-16T07:28:05;5.18;;;1.98;;
44120;SDS011;29783;52.504;13.478;2023-07-16T07:30:31;3.20;;;1.90;;
44120;SDS011;29783;52.504;13.478;2023-07-16T07:32:57;4.55;;;1.73;;
44120;SDS011;29783;52.504;13.478;2023-07-16T07:35:22;4.40;;;1.90;;
44120;SDS011;29783;52.504;13.478;2023-07-16T07:37:48;2.10;;;1.80;;
44120;SDS011;29783;52.504;13.478;2023-07-16T07:40:13;6.20;;;2.00;;
44120;SDS011;29783;52.504;13.478;2023-07-16T07:42:39;8.15;;;1.92;;
44120;SDS011;29783;52.504;13.478;2023-07-16T07:45:05;4.95;;;1.90;;
44120;SDS011;29783;52.504;13.478;2023-07-16T07:47:31;2.40;;;1.58;;
44120;SDS011;29783;52.504;13.478;2023-07-16T07:49:56;6.20;;;1.88;;
44120;SDS011;29783;52.504;13.478;2023-07-16T07:52:22;3.30;;;2.20;;
44120;SDS011;29783;52.504;13.478;2023-07-16T07:54:48;11.07;;;1.85;;
44120;SDS011;29783;52.504;13.478;2023-07-16T07:57:14;10.02;;;1.92;;
44120;SDS011;29783;52.504;13.478;2023-07-16T07:59:40;3.10;;;1.75;;
44120;SDS011;29783;52.504;13.478;2023-07-16T08:02:05;3.67;;;1.90;;
44120;SDS011;29783;52.504;13.478;2023-07-16T08:04:31;19.67;;;1.98;;
44120;SDS011;29783;52.504;13.478;2023-07-16T08:06:57;4.28;;;1.90;;
44120;SDS011;29783;52.504;13.478;2023-07-16T08:09:23;2.58;;;1.60;;
44120;SDS011;29783;52.504;13.478;2023-07-16T08:11:50;8.45;;;1.90;;
44120;SDS011;29783;52.504;13.478;2023-07-16T08:14:15;3.15;;;1.58;;
44120;SDS011;29783;52.504;13.478;2023-07-16T08:16:43;3.45;;;2.13;;
44120;SDS011;29783;52.504;13.478;2023-07-16T08:19:08;5.85;;;1.60;;
44120;SDS011;29783;52.504;13.478;2023-07-16T08:21:34;2.13;;;1.45;;
44120;SDS011;29783;52.504;13.478;2023-07-16T08:24:01;3.50;;;1.70;;
44120;SDS011;29783;52.504;13.478;2023-07-16T08:26:26;3.70;;;1.70;;
44120;SDS011;29783;52.504;13.478;2023-07-16T08:28:52;3.25;;;1.63;;
44120;SDS011;29783;52.504;13.478;2023-07-16T08:31:19;2.88;;;1.60;;
44120;SDS011;29783;52.504;13.478;2023-07-16T08:33:46;4.45;;;1.20;;
44120;SDS011;29783;52.504;13.478;2023-07-16T08:36:11;3.85;;;1.45;;
44120;SDS011;29783;52.504;13.478;2023-07-16T08:38:37;4.50;;;1.65;;
44120;SDS011;29783;52.504;13.478;2023-07-16T08:41:03;2.92;;;1.20;;
44120;SDS011;29783;52.504;13.478;2023-07-16T08:43:29;3.55;;;1.52;;
44120;SDS011;29783;52.504;13.478;2023-07-16T08:45:55;2.67;;;1.50;;
44120;SDS011;29783;52.504;13.478;2023-07-16T08:48:21;4.65;;;1.48;;
44120;SDS011;29783;52.504;13.478;2023-07-16T08:50:48;2.47;;;1.50;;
44120;SDS011;29783;52.504;13.478;2023-07-16T08:53:17;3.60;;;1.58;;
44120;SDS011;29783;52.504;13.478;2023-07-16T08:55:44;3.58;;;1.33;;
44120;SDS011;29783;52.504;13.478;2023-07-16T08:58:11;4.20;;;1.55;;
44120;SDS011;29783;52.504;13.478;2023-07-16T09:00:39;2.72;;;1.40;;
44120;SDS011;29783;52.504;13.478;2023-07-16T09:03:16;3.90;;;1.40;;
44120;SDS011;29783;52.504;13.478;2023-07-16T09:05:42;5.45;;;1.70;;
44120;SDS011;29783;52.504;13.478;2023-07-16T09:08:09;4.53;;;1.23;;
44120;SDS011;29783;52.504;13.478;2023-07-16T09:10:35;12.48;;;1.90;;
44120;SDS011;29783;52.504;13.478;2023-07-16T09:13:01;0.95;;;0.80;;
44120;SDS011;29783;52.504;13.478;2023-07-16T09:15:28;3.60;;;1.40;;
44120;SDS011;29783;52.504;13.478;2023-07-16T09:17:54;3.83;;;1.60;;
44120;SDS011;29783;52.504;13.478;2023-07-16T09:20:20;3.40;;;1.40;;
44120;SDS011;29783;52.504;13.478;2023-07-16T09:22:48;8.93;;;1.55;;
44120;SDS011;29783;52.504;13.478;2023-07-16T09:25:15;3.55;;;1.58;;
44120;SDS011;29783;52.504;13.478;2023-07-16T09:27:41;3.63;;;1.67;;
44120;SDS011;29783;52.504;13.478;2023-07-16T09:30:14;4.57;;;1.77;;
44120;SDS011;29783;52.504;13.478;2023-07-16T09:32:43;3.00;;;1.55;;
44120;SDS011;29783;52.504;13.478;2023-07-16T09:35:13;5.43;;;1.75;;
44120;SDS011;29783;52.504;13.478;2023-07-16T09:37:41;5.72;;;1.70;;
44120;SDS011;29783;52.504;13.478;2023-07-16T09:40:08;5.25;;;1.60;;
44120;SDS011;29783;52.504;13.478;2023-07-16T09:42:36;3.47;;;1.52;;
44120;SDS011;29783;52.504;13.478;2023-07-16T09:45:08;4.55;;;1.80;;
44120;SDS011;29783;52.504;13.478;2023-07-16T09:47:41;3.22;;;1.60;;
44120;SDS011;29783;52.504;13.478;2023-07-16T09:50:09;4.10;;;1.77;;
44120;SDS011;29783;52.504;13.478;2023-07-16T09:52:36;4.45;;;1.63;;
44120;SDS011;29783;52.504;13.478;2023-07-16T09:55:08;2.95;;;1.35;;
44120;SDS011;29783;52.504;13.478;2023-07-16T09:57:39;2.83;;;1.48;;
44120;SDS011;29783;52.504;13.478;2023-07-16T10:00:09;4.63;;;1.52;;
44120;SDS011;29783;52.504;13.478;2023-07-16T10:02:37;7.90;;;1.98;;
44120;SDS011;29783;52.504;13.478;2023-07-16T10:05:19;2.35;;;1.35;;
44120;SDS011;29783;52.504;13.478;2023-07-16T10:07:52;4.47;;;1.60;;
44120;SDS011;29783;52.504;13.478;2023-07-16T10:10:38;4.65;;;1.55;;
44120;SDS011;29783;52.504;13.478;2023-07-16T10:13:06;3.33;;;1.58;;
44120;SDS011;29783;52.504;13.478;2023-07-16T10:15:33;6.05;;;1.55;;
44120;SDS011;29783;52.504;13.478;2023-07-16T10:17:58;5.43;;;1.75;;
44120;SDS011;29783;52.504;13.478;2023-07-16T10:20:28;3.50;;;1.27;;
44120;SDS011;29783;52.504;13.478;2023-07-16T10:22:55;5.47;;;1.60;;
44120;SDS011;29783;52.504;13.478;2023-07-16T10:27:46;3.47;;;1.42;;
44120;SDS011;29783;52.504;13.478;2023-07-16T10:30:15;4.95;;;1.60;;
44120;SDS011;29783;52.504;13.478;2023-07-16T10:32:42;5.72;;;1.70;;
44120;SDS011;29783;52.504;13.478;2023-07-16T10:35:08;3.58;;;1.52;;
44120;SDS011;29783;52.504;13.478;2023-07-16T10:37:35;5.97;;;1.65;;
44120;SDS011;29783;52.504;13.478;2023-07-16T10:40:02;3.25;;;1.70;;
44120;SDS011;29783;52.504;13.478;2023-07-16T10:42:28;7.60;;;1.40;;
44120;SDS011;29783;52.504;13.478;2023-07-16T10:44:58;6.20;;;1.95;;
44120;SDS011;29783;52.504;13.478;2023-07-16T10:47:28;8.27;;;1.67;;
44120;SDS011;29783;52.504;13.478;2023-07-16T10:49:58;2.80;;;1.70;;
44120;SDS011;29783;52.504;13.478;2023-07-16T10:52:25;3.78;;;1.30;;
44120;SDS011;29783;52.504;13.478;2023-07-16T10:54:51;4.07;;;1.65;;
44120;SDS011;29783;52.504;13.478;2023-07-16T10:57:23;4.10;;;1.50;;
44120;SDS011;29783;52.504;13.478;2023-07-16T10:59:50;3.28;;;2.00;;
44120;SDS011;29783;52.504;13.478;2023-07-16T11:02:17;3.35;;;1.55;;
44120;SDS011;29783;52.504;13.478;2023-07-16T11:04:44;4.40;;;1.75;;
44120;SDS011;29783;52.504;13.478;2023-07-16T11:07:11;3.30;;;1.58;;
44120;SDS011;29783;52.504;13.478;2023-07-16T11:09:45;7.45;;;1.50;;
44120;SDS011;29783;52.504;13.478;2023-07-16T11:12:18;6.30;;;1.65;;
44120;SDS011;29783;52.504;13.478;2023-07-16T11:14:50;5.78;;;1.70;;
44120;SDS011;29783;52.504;13.478;2023-07-16T11:17:17;3.85;;;1.50;;
44120;SDS011;29783;52.504;13.478;2023-07-16T11:19:46;3.95;;;1.42;;
44120;SDS011;29783;52.504;13.478;2023-07-16T11:22:15;4.05;;;1.70;;
44120;SDS011;29783;52.504;13.478;2023-07-16T11:29:49;6.03;;;1.52;;
44120;SDS011;29783;52.504;13.478;2023-07-16T11:35:08;5.13;;;2.05;;
44120;SDS011;29783;52.504;13.478;2023-07-16T11:37:40;4.25;;;1.77;;
44120;SDS011;29783;52.504;13.478;2023-07-16T11:40:07;4.13;;;1.90;;
44120;SDS011;29783;52.504;13.478;2023-07-16T11:42:35;2.95;;;1.70;;
44120;SDS011;29783;52.504;13.478;2023-07-16T11:45:02;2.55;;;1.63;;
44120;SDS011;29783;52.504;13.478;2023-07-16T12:02:48;2.63;;;1.50;;
44120;SDS011;29783;52.504;13.478;2023-07-16T12:05:16;4.50;;;1.65;;
44120;SDS011;29783;52.504;13.478;2023-07-16T12:07:43;2.30;;;1.40;;
44120;SDS011;29783;52.504;13.478;2023-07-16T12:10:08;6.93;;;1.40;;
44120;SDS011;29783;52.504;13.478;2023-07-16T12:12:34;2.75;;;1.48;;
44120;SDS011;29783;52.504;13.478;2023-07-16T12:15:03;4.00;;;1.52;;
44120;SDS011;29783;52.504;13.478;2023-07-16T12:17:29;5.00;;;1.67;;
44120;SDS011;29783;52.504;13.478;2023-07-16T12:19:55;4.22;;;1.90;;
44120;SDS011;29783;52.504;13.478;2023-07-16T12:22:21;10.93;;;1.73;;
44120;SDS011;29783;52.504;13.478;2023-07-16T12:24:47;3.80;;;1.65;;
44120;SDS011;29783;52.504;13.478;2023-07-16T12:27:14;4.63;;;1.65;;
44120;SDS011;29783;52.504;13.478;2023-07-16T12:29:40;4.15;;;1.48;;
44120;SDS011;29783;52.504;13.478;2023-07-16T12:32:06;2.55;;;1.70;;
44120;SDS011;29783;52.504;13.478;2023-07-16T12:34:33;5.18;;;1.65;;
44120;SDS011;29783;52.504;13.478;2023-07-16T12:36:59;5.53;;;1.58;;
44120;SDS011;29783;52.504;13.478;2023-07-16T12:39:25;2.85;;;1.30;;
44120;SDS011;29783;52.504;13.478;2023-07-16T12:41:50;7.07;;;1.70;;
44120;SDS011;29783;52.504;13.478;2023-07-16T12:44:16;3.05;;;1.27;;
44120;SDS011;29783;52.504;13.478;2023-07-16T12:46:42;5.53;;;1.42;;
44120;SDS011;29783;52.504;13.478;2023-07-16T12:49:07;9.00;;;1.67;;
44120;SDS011;29783;52.504;13.478;2023-07-16T12:51:33;5.30;;;1.30;;
44120;SDS011;29783;52.504;13.478;2023-07-16T12:53:59;2.63;;;1.20;;
44120;SDS011;29783;52.504;13.478;2023-07-16T12:56:25;5.18;;;1.40;;
44120;SDS011;29783;52.504;13.478;2023-07-16T12:58:51;6.07;;;1.40;;
44120;SDS011;29783;52.504;13.478;2023-07-16T13:01:17;3.40;;;1.40;;
44120;SDS011;29783;52.504;13.478;2023-07-16T13:03:43;4.10;;;1.63;;
44120;SDS011;29783;52.504;13.478;2023-07-16T13:06:09;9.48;;;1.42;;
44120;SDS011;29783;52.504;13.478;2023-07-16T13:08:35;4.80;;;1.60;;
44120;SDS011;29783;52.504;13.478;2023-07-16T13:11:00;5.25;;;1.40;;
44120;SDS011;29783;52.504;13.478;2023-07-16T13:13:27;11.77;;;2.28;;
44120;SDS011;29783;52.504;13.478;2023-07-16T13:15:53;5.80;;;1.58;;
44120;SDS011;29783;52.504;13.478;2023-07-16T13:18:19;12.60;;;1.48;;
44120;SDS011;29783;52.504;13.478;2023-07-16T13:20:44;5.20;;;1.48;;
44120;SDS011;29783;52.504;13.478;2023-07-16T13:23:10;5.65;;;1.50;;
44120;SDS011;29783;52.504;13.478;2023-07-16T13:25:36;5.70;;;1.50;;
44120;SDS011;29783;52.504;13.478;2023-07-16T13:28:04;5.88;;;1.63;;
44120;SDS011;29783;52.504;13.478;2023-07-16T13:30:33;2.58;;;1.20;;
44120;SDS011;29783;52.504;13.478;2023-07-16T13:32:59;4.95;;;1.45;;
44120;SDS011;29783;52.504;13.478;2023-07-16T13:35:26;5.60;;;1.25;;
44120;SDS011;29783;52.504;13.478;2023-07-16T13:37:52;5.05;;;1.50;;
44120;SDS011;29783;52.504;13.478;2023-07-16T13:40:19;3.10;;;1.60;;
44120;SDS011;29783;52.504;13.478;2023-07-16T13:42:46;11.15;;;1.48;;
44120;SDS011;29783;52.504;13.478;2023-07-16T13:45:14;5.78;;;1.63;;
44120;SDS011;29783;52.504;13.478;2023-07-16T13:47:41;8.32;;;1.60;;
44120;SDS011;29783;52.504;13.478;2023-07-16T13:50:08;8.90;;;1.40;;
44120;SDS011;29783;52.504;13.478;2023-07-16T13:52:34;3.63;;;1.35;;
44120;SDS011;29783;52.504;13.478;2023-07-16T13:55:01;5.35;;;1.38;;
44120;SDS011;29783;52.504;13.478;2023-07-16T13:57:28;2.00;;;1.40;;
44120;SDS011;29783;52.504;13.478;2023-07-16T13:59:54;5.43;;;1.77;;
44120;SDS011;29783;52.504;13.478;2023-07-16T14:02:20;4.05;;;1.23;;
44120;SDS011;29783;52.504;13.478;2023-07-16T14:04:46;6.78;;;1.67;;
44120;SDS011;29783;52.504;13.478;2023-07-16T14:07:12;3.58;;;1.63;;
44120;SDS011;29783;52.504;13.478;2023-07-16T14:09:37;10.13;;;1.77;;
44120;SDS011;29783;52.504;13.478;2023-07-16T14:12:03;3.95;;;1.67;;
44120;SDS011;29783;52.504;13.478;2023-07-16T14:14:29;4.30;;;1.50;;
44120;SDS011;29783;52.504;13.478;2023-07-16T14:16:55;6.80;;;1.60;;
44120;SDS011;29783;52.504;13.478;2023-07-16T14:19:20;2.38;;;1.20;;
44120;SDS011;29783;52.504;13.478;2023-07-16T14:21:46;6.20;;;1.58;;
44120;SDS011;29783;52.504;13.478;2023-07-16T14:24:12;7.35;;;1.40;;
44120;SDS011;29783;52.504;13.478;2023-07-16T14:26:38;4.03;;;1.45;;
44120;SDS011;29783;52.504;13.478;2023-07-16T14:29:03;2.92;;;1.23;;
44120;SDS011;29783;52.504;13.478;2023-07-16T14:31:29;7.38;;;1.35;;
44120;SDS011;29783;52.504;13.478;2023-07-16T14:33:55;5.97;;;1.33;;
44120;SDS011;29783;52.504;13.478;2023-07-16T14:36:20;2.80;;;1.40;;
44120;SDS011;29783;52.504;13.478;2023-07-16T14:38:47;3.90;;;1.33;;
44120;SDS011;29783;52.504;13.478;2023-07-16T14:41:13;6.47;;;1.83;;
44120;SDS011;29783;52.504;13.478;2023-07-16T14:43:38;6.38;;;1.50;;
44120;SDS011;29783;52.504;13.478;2023-07-16T14:46:04;3.17;;;1.52;;
44120;SDS011;29783;52.504;13.478;2023-07-16T14:48:30;4.63;;;1.55;;
44120;SDS011;29783;52.504;13.478;2023-07-16T14:50:55;1.73;;;1.17;;
44120;SDS011;29783;52.504;13.478;2023-07-16T14:53:21;3.83;;;1.35;;
44120;SDS011;29783;52.504;13.478;2023-07-16T14:55:47;7.35;;;1.70;;
44120;SDS011;29783;52.504;13.478;2023-07-16T14:58:19;5.95;;;1.55;;
44120;SDS011;29783;52.504;13.478;2023-07-16T15:00:47;7.15;;;1.83;;
44120;SDS011;29783;52.504;13.478;2023-07-16T15:03:13;6.25;;;1.40;;
44120;SDS011;29783;52.504;13.478;2023-07-16T15:05:39;3.80;;;1.50;;
44120;SDS011;29783;52.504;13.478;2023-07-16T15:08:04;4.43;;;1.08;;
44120;SDS011;29783;52.504;13.478;2023-07-16T15:10:31;3.33;;;1.30;;
44120;SDS011;29783;52.504;13.478;2023-07-16T15:12:57;9.15;;;1.67;;
44120;SDS011;29783;52.504;13.478;2023-07-16T15:15:22;7.43;;;1.30;;
44120;SDS011;29783;52.504;13.478;2023-07-16T15:17:48;3.58;;;1.33;;
44120;SDS011;29783;52.504;13.478;2023-07-16T15:20:13;7.05;;;1.40;;
44120;SDS011;29783;52.504;13.478;2023-07-16T15:22:39;3.85;;;1.13;;
44120;SDS011;29783;52.504;13.478;2023-07-16T15:25:05;4.93;;;1.77;;
44120;SDS011;29783;52.504;13.478;2023-07-16T15:27:31;7.97;;;1.77;;
44120;SDS011;29783;52.504;13.478;2023-07-16T15:29:57;8.60;;;1.63;;
44120;SDS011;29783;52.504;13.478;2023-07-16T15:32:23;3.70;;;1.38;;
44120;SDS011;29783;52.504;13.478;2023-07-16T15:34:49;2.85;;;1.40;;
44120;SDS011;29783;52.504;13.478;2023-07-16T15:37:15;5.07;;;1.50;;
44120;SDS011;29783;52.504;13.478;2023-07-16T15:39:40;12.68;;;1.38;;
44120;SDS011;29783;52.504;13.478;2023-07-16T15:42:06;6.05;;;1.48;;
44120;SDS011;29783;52.504;13.478;2023-07-16T15:44:32;3.90;;;1.50;;
44120;SDS011;29783;52.504;13.478;2023-07-16T15:46:58;3.92;;;1.55;;
44120;SDS011;29783;52.504;13.478;2023-07-16T15:49:24;4.68;;;1.60;;
44120;SDS011;29783;52.504;13.478;2023-07-16T15:51:51;3.97;;;1.45;;
44120;SDS011;29783;52.504;13.478;2023-07-16T15:54:17;4.45;;;1.52;;
44120;SDS011;29783;52.504;13.478;2023-07-16T15:56:43;3.08;;;1.23;;
44120;SDS011;29783;52.504;13.478;2023-07-16T15:59:09;4.30;;;1.50;;
44120;SDS011;29783;52.504;13.478;2023-07-16T16:01:34;2.92;;;1.27;;
44120;SDS011;29783;52.504;13.478;2023-07-16T16:04:00;8.85;;;1.55;;
44120;SDS011;29783;52.504;13.478;2023-07-16T16:06:26;2.95;;;1.25;;
44120;SDS011;29783;52.504;13.478;2023-07-16T16:08:51;3.65;;;1.35;;